sensor_id;sensor_type;location;lat;lon;timestamp;pressure;altitude;pressure_sealevel;temperature;humidity
30714;BME280;17465;47.934;33.430;2023-07-02T00:01:56;57564.49;;;-140.43;55.40
30714;BME280;17465;47.934;33.430;2023-07-02T00:04:26;57568.73;;;-140.43;55.11
30714;BME280;17465;47.934;33.430;2023-07-02T00:06:57;57557.08;;;-140.43;54.96
30714;BME280;17465;47.934;33.430;2023-07-02T00:09:27;57557.08;;;-140.43;54.96
30714;BME280;17465;47.934;33.430;2023-07-02T00:11:57;57547.54;;;-140.43;55.24
30714;BME280;17465;47.934;33.430;2023-07-02T00:14:27;57534.84;;;-140.43;55.52
30714;BME280;17465;47.934;33.430;2023-07-02T00:16:58;57562.37;;;-140.43;55.20
30714;BME280;17465;47.934;33.430;2023-07-02T00:19:29;57556.02;;;-140.43;55.61
30714;BME280;17465;47.934;33.430;2023-07-02T00:21:59;57556.02;;;-140.43;55.61
30714;BME280;17465;47.934;33.430;2023-07-02T00:24:30;57578.26;;;-140.43;54.86
30714;BME280;17465;47.934;33.430;2023-07-02T00:27:00;57551.78;;;-140.43;55.35
30714;BME280;17465;47.934;33.430;2023-07-02T00:29:31;57559.20;;;-140.43;56.75
30714;BME280;17465;47.934;33.430;2023-07-02T00:32:01;57551.78;;;-140.43;55.60
30714;BME280;17465;47.934;33.430;2023-07-02T00:34:32;57547.54;;;-140.43;55.16
30714;BME280;17465;47.934;33.430;2023-07-02T00:37:03;57525.30;;;-140.43;56.22
30714;BME280;17465;47.934;33.430;2023-07-02T00:39:33;57565.55;;;-140.43;55.89
30714;BME280;17465;47.934;33.430;2023-07-02T00:42:04;57565.55;;;-140.43;55.89
30714;BME280;17465;47.934;33.430;2023-07-02T00:44:35;57539.07;;;-140.43;56.31
30714;BME280;17465;47.934;33.430;2023-07-02T00:47:11;57534.84;;;-140.43;56.29
30714;BME280;17465;47.934;33.430;2023-07-02T00:49:37;57534.84;;;-140.43;56.29
30714;BME280;17465;47.934;33.430;2023-07-02T00:52:09;57516.83;;;-140.43;56.86
30714;BME280;17465;47.934;33.430;2023-07-02T00:54:40;57575.08;;;-140.43;56.70
30714;BME280;17465;47.934;33.430;2023-07-02T00:57:12;57538.01;;;-140.43;57.50
30714;BME280;17465;47.934;33.430;2023-07-02T00:59:42;57503.06;;;-140.43;58.18
30714;BME280;17465;47.934;33.430;2023-07-02T01:02:12;57546.48;;;-140.43;57.67
30714;BME280;17465;47.934;33.430;2023-07-02T01:04:43;57535.89;;;-140.43;56.93
30714;BME280;17465;47.934;33.430;2023-07-02T01:07:13;57538.01;;;-140.43;57.98
30714;BME280;17465;47.934;33.430;2023-07-02T01:09:44;57529.54;;;-140.43;58.54
30714;BME280;17465;47.934;33.430;2023-07-02T01:12:14;57536.95;;;-140.43;59.42
30714;BME280;17465;47.934;33.430;2023-07-02T01:14:48;57536.95;;;-140.43;59.42
30714;BME280;17465;47.934;33.430;2023-07-02T01:17:20;57523.18;;;-140.43;59.30
30714;BME280;17465;47.934;33.430;2023-07-02T01:19:55;57528.48;;;-140.43;60.03
30714;BME280;17465;47.934;33.430;2023-07-02T01:22:27;57530.60;;;-140.43;59.75
30714;BME280;17465;47.934;33.430;2023-07-02T01:24:58;57545.43;;;-140.43;60.04
30714;BME280;17465;47.934;33.430;2023-07-02T01:27:29;57545.43;;;-140.43;60.04
30714;BME280;17465;47.934;33.430;2023-07-02T01:29:59;57552.84;;;-140.43;59.68
30714;BME280;17465;47.934;33.430;2023-07-02T01:32:30;57528.48;;;-140.43;60.12
30714;BME280;17465;47.934;33.430;2023-07-02T01:35:01;57516.83;;;-140.43;60.92
30714;BME280;17465;47.934;33.430;2023-07-02T01:37:31;57516.83;;;-140.43;60.92
30714;BME280;17465;47.934;33.430;2023-07-02T01:40:02;57518.95;;;-140.43;61.18
30714;BME280;17465;47.934;33.430;2023-07-02T01:42:32;57533.77;;;-140.43;60.79
30714;BME280;17465;47.934;33.430;2023-07-02T01:45:03;57498.82;;;-140.43;60.81
30714;BME280;17465;47.934;33.430;2023-07-02T01:47:33;57546.48;;;-140.43;61.58
30714;BME280;17465;47.934;33.430;2023-07-02T01:50:07;57546.48;;;-140.43;61.58
30714;BME280;17465;47.934;33.430;2023-07-02T01:52:45;57505.18;;;-140.43;60.83
30714;BME280;17465;47.934;33.430;2023-07-02T01:55:16;57532.72;;;-140.43;60.81
30714;BME280;17465;47.934;33.430;2023-07-02T01:57:46;57532.72;;;-140.43;60.98
30714;BME280;17465;47.934;33.430;2023-07-02T02:00:17;57511.54;;;-140.43;61.53
30714;BME280;17465;47.934;33.430;2023-07-02T02:02:48;57508.36;;;-140.43;62.09
30714;BME280;17465;47.934;33.430;2023-07-02T02:05:18;57530.60;;;-140.43;61.54
30714;BME280;17465;47.934;33.430;2023-07-02T02:07:50;57530.60;;;-140.43;61.54
30714;BME280;17465;47.934;33.430;2023-07-02T02:10:20;57518.95;;;-140.43;61.91
30714;BME280;17465;47.934;33.430;2023-07-02T02:12:51;57509.41;;;-140.43;62.93
30714;BME280;17465;47.934;33.430;2023-07-02T02:15:21;57509.41;;;-140.43;62.93
30714;BME280;17465;47.934;33.430;2023-07-02T02:17:52;57509.41;;;-140.43;63.30
30714;BME280;17465;47.934;33.430;2023-07-02T02:20:22;57526.36;;;-140.43;62.28
30714;BME280;17465;47.934;33.430;2023-07-02T02:22:52;57563.43;;;-140.43;62.63
30714;BME280;17465;47.934;33.430;2023-07-02T02:25:23;57563.43;;;-140.43;62.63
30714;BME280;17465;47.934;33.430;2023-07-02T02:27:53;57528.48;;;-140.43;62.88
30714;BME280;17465;47.934;33.430;2023-07-02T02:30:24;57534.84;;;-140.43;62.04
30714;BME280;17465;47.934;33.430;2023-07-02T02:32:54;57528.48;;;-140.43;61.97
30714;BME280;17465;47.934;33.430;2023-07-02T02:35:24;57527.42;;;-140.43;63.16
30714;BME280;17465;47.934;33.430;2023-07-02T02:37:55;57515.77;;;-140.43;62.42
30714;BME280;17465;47.934;33.430;2023-07-02T02:40:25;57515.77;;;-140.43;62.42
30714;BME280;17465;47.934;33.430;2023-07-02T02:42:56;57520.01;;;-140.43;63.34
30714;BME280;17465;47.934;33.430;2023-07-02T02:45:26;57520.01;;;-140.43;63.34
30714;BME280;17465;47.934;33.430;2023-07-02T02:47:57;57547.54;;;-140.43;63.12
30714;BME280;17465;47.934;33.430;2023-07-02T02:50:27;57521.07;;;-140.43;63.01
30714;BME280;17465;47.934;33.430;2023-07-02T02:52:58;57521.07;;;-140.43;63.01
30714;BME280;17465;47.934;33.430;2023-07-02T02:55:28;57522.12;;;-140.43;63.78
30714;BME280;17465;47.934;33.430;2023-07-02T02:57:59;57493.53;;;-140.43;63.60
30714;BME280;17465;47.934;33.430;2023-07-02T03:00:30;57562.37;;;-140.43;63.34
30714;BME280;17465;47.934;33.430;2023-07-02T03:03:01;57530.60;;;-140.43;63.67
30714;BME280;17465;47.934;33.430;2023-07-02T03:05:31;57541.19;;;-140.43;63.70
30714;BME280;17465;47.934;33.430;2023-07-02T03:08:03;57524.25;;;-140.43;63.88
30714;BME280;17465;47.934;33.430;2023-07-02T03:10:34;57536.95;;;-140.43;64.03
30714;BME280;17465;47.934;33.430;2023-07-02T03:13:04;57536.95;;;-140.43;64.03
30714;BME280;17465;47.934;33.430;2023-07-02T03:15:35;57536.95;;;-140.43;62.88
30714;BME280;17465;47.934;33.430;2023-07-02T03:18:06;57536.95;;;-140.43;62.88
30714;BME280;17465;47.934;33.430;2023-07-02T03:20:36;57536.95;;;-140.43;62.28
30714;BME280;17465;47.934;33.430;2023-07-02T03:23:07;57530.60;;;-140.43;62.88
30714;BME280;17465;47.934;33.430;2023-07-02T03:25:38;57530.60;;;-140.43;62.88
30714;BME280;17465;47.934;33.430;2023-07-02T03:28:08;57523.18;;;-140.43;62.87
30714;BME280;17465;47.934;33.430;2023-07-02T03:30:39;57510.48;;;-140.43;61.97
30714;BME280;17465;47.934;33.430;2023-07-02T03:33:10;57558.13;;;-140.43;61.67
30714;BME280;17465;47.934;33.430;2023-07-02T03:35:40;57563.43;;;-140.43;61.18
30714;BME280;17465;47.934;33.430;2023-07-02T03:38:11;57563.43;;;-140.43;61.18
30714;BME280;17465;47.934;33.430;2023-07-02T03:40:42;57566.61;;;-140.43;61.51
30714;BME280;17465;47.934;33.430;2023-07-02T03:43:13;57538.01;;;-140.43;62.55
30714;BME280;17465;47.934;33.430;2023-07-02T03:45:44;57532.72;;;-140.43;63.00
30714;BME280;17465;47.934;33.430;2023-07-02T03:48:14;57561.31;;;-140.43;60.90
30714;BME280;17465;47.934;33.430;2023-07-02T03:50:44;57548.61;;;-140.43;61.57
30714;BME280;17465;47.934;33.430;2023-07-02T03:53:15;57548.61;;;-140.43;61.57
30714;BME280;17465;47.934;33.430;2023-07-02T03:55:46;57549.66;;;-140.43;60.55
30714;BME280;17465;47.934;33.430;2023-07-02T03:58:16;57587.79;;;-140.43;60.54
30714;BME280;17465;47.934;33.430;2023-07-02T04:00:46;57563.43;;;-140.43;60.67
30714;BME280;17465;47.934;33.430;2023-07-02T04:03:18;57563.43;;;-140.43;60.66
30714;BME280;17465;47.934;33.430;2023-07-02T04:05:48;57585.67;;;-140.43;61.07
30714;BME280;17465;47.934;33.430;2023-07-02T04:08:20;57558.13;;;-140.43;61.07
30714;BME280;17465;47.934;33.430;2023-07-02T04:10:50;57600.50;;;-140.43;61.62
30714;BME280;17465;47.934;33.430;2023-07-02T04:13:20;57581.44;;;-140.43;61.20
30714;BME280;17465;47.934;33.430;2023-07-02T04:15:51;57589.91;;;-140.43;60.57
30714;BME280;17465;47.934;33.430;2023-07-02T04:18:21;57589.91;;;-140.43;60.57
30714;BME280;17465;47.934;33.430;2023-07-02T04:20:53;57556.02;;;-140.43;59.76
30714;BME280;17465;47.934;33.430;2023-07-02T04:23:24;57582.50;;;-140.43;59.66
30714;BME280;17465;47.934;33.430;2023-07-02T04:25:55;57582.50;;;-140.43;59.66
30714;BME280;17465;47.934;33.430;2023-07-02T04:28:27;57594.14;;;-140.43;59.42
30714;BME280;17465;47.934;33.430;2023-07-02T04:30:58;57597.32;;;-140.43;59.44
30714;BME280;17465;47.934;33.430;2023-07-02T04:33:29;57589.91;;;-140.43;59.30
30714;BME280;17465;47.934;33.430;2023-07-02T04:35:59;57595.21;;;-140.43;59.48
30714;BME280;17465;47.934;33.430;2023-07-02T04:38:31;57568.73;;;-140.43;59.89
30714;BME280;17465;47.934;33.430;2023-07-02T04:41:02;57568.73;;;-140.43;59.89
30714;BME280;17465;47.934;33.430;2023-07-02T04:43:33;57597.32;;;-140.43;59.69
30714;BME280;17465;47.934;33.430;2023-07-02T04:46:03;57597.32;;;-140.43;59.69
30714;BME280;17465;47.934;33.430;2023-07-02T04:48:34;57628.04;;;-140.43;59.40
30714;BME280;17465;47.934;33.430;2023-07-02T04:51:04;57614.27;;;-140.43;60.36
30714;BME280;17465;47.934;33.430;2023-07-02T04:53:35;57614.27;;;-140.43;60.36
30714;BME280;17465;47.934;33.430;2023-07-02T04:56:09;57594.14;;;-140.43;60.27
30714;BME280;17465;47.934;33.430;2023-07-02T04:58:50;57621.68;;;-140.43;58.82
30714;BME280;17465;47.934;33.430;2023-07-02T05:01:20;57597.32;;;-140.43;58.82
30714;BME280;17465;47.934;33.430;2023-07-02T05:03:51;57613.21;;;-140.43;58.99
30714;BME280;17465;47.934;33.430;2023-07-02T05:06:26;57613.21;;;-140.43;58.99
30714;BME280;17465;47.934;33.430;2023-07-02T05:08:55;57638.63;;;-140.43;58.97
30714;BME280;17465;47.934;33.430;2023-07-02T05:11:26;57638.63;;;-140.43;58.97
30714;BME280;17465;47.934;33.430;2023-07-02T05:14:04;57606.86;;;-140.43;59.38
30714;BME280;17465;47.934;33.430;2023-07-02T05:16:34;57604.74;;;-140.43;59.97
30714;BME280;17465;47.934;33.430;2023-07-02T05:19:05;57631.22;;;-140.43;60.09
30714;BME280;17465;47.934;33.430;2023-07-02T05:21:36;57631.22;;;-140.43;60.09
30714;BME280;17465;47.934;33.430;2023-07-02T05:24:22;57624.86;;;-140.43;60.86
30714;BME280;17465;47.934;33.430;2023-07-02T05:26:49;57624.86;;;-140.43;60.86
30714;BME280;17465;47.934;33.430;2023-07-02T05:29:24;57621.68;;;-140.43;59.69
30714;BME280;17465;47.934;33.430;2023-07-02T05:31:56;57632.27;;;-140.43;59.57
30714;BME280;17465;47.934;33.430;2023-07-02T05:34:31;57632.27;;;-140.43;59.57
30714;BME280;17465;47.934;33.430;2023-07-02T05:37:05;57636.51;;;-140.43;58.94
30714;BME280;17465;47.934;33.430;2023-07-02T05:39:45;57651.34;;;-140.43;60.07
30714;BME280;17465;47.934;33.430;2023-07-02T05:42:17;57650.28;;;-140.43;58.79
30714;BME280;17465;47.934;33.430;2023-07-02T05:47:42;57669.34;;;-140.43;58.69
30714;BME280;17465;47.934;33.430;2023-07-02T05:50:14;57659.81;;;-140.43;59.66
30714;BME280;17465;47.934;33.430;2023-07-02T05:52:53;57659.81;;;-140.43;59.66
30714;BME280;17465;47.934;33.430;2023-07-02T05:55:36;57700.06;;;-140.43;57.92
30714;BME280;17465;47.934;33.430;2023-07-02T05:58:11;57700.06;;;-140.43;57.92
30714;BME280;17465;47.934;33.430;2023-07-02T06:00:46;57678.88;;;-140.43;58.95
30714;BME280;17465;47.934;33.430;2023-07-02T06:03:27;57678.88;;;-140.43;58.95
30714;BME280;17465;47.934;33.430;2023-07-02T06:06:02;57720.19;;;-140.43;57.50
30714;BME280;17465;47.934;33.430;2023-07-02T06:08:32;57729.72;;;-140.43;55.08
30714;BME280;17465;47.934;33.430;2023-07-02T06:11:03;57731.84;;;-140.43;55.80
30714;BME280;17465;47.934;33.430;2023-07-02T06:13:34;57731.84;;;-140.43;55.80
30714;BME280;17465;47.934;33.430;2023-07-02T06:16:04;57792.21;;;-140.43;53.51
30714;BME280;17465;47.934;33.430;2023-07-02T06:18:35;57771.03;;;-140.43;54.93
30714;BME280;17465;47.934;33.430;2023-07-02T06:21:05;57765.73;;;-140.43;53.50
30714;BME280;17465;47.934;33.430;2023-07-02T06:23:43;57717.01;;;-140.43;53.38
30714;BME280;17465;47.934;33.430;2023-07-02T06:26:14;57717.01;;;-140.43;53.38
30714;BME280;17465;47.934;33.430;2023-07-02T06:28:44;57772.09;;;-140.43;53.01
30714;BME280;17465;47.934;33.430;2023-07-02T06:31:19;57795.39;;;-140.43;52.80
30714;BME280;17465;47.934;33.430;2023-07-02T06:33:50;57795.39;;;-140.43;52.80
30714;BME280;17465;47.934;33.430;2023-07-02T06:36:20;57776.32;;;-140.43;53.53
30714;BME280;17465;47.934;33.430;2023-07-02T06:38:51;57776.32;;;-140.43;53.53
30714;BME280;17465;47.934;33.430;2023-07-02T06:41:27;57760.44;;;-140.43;53.10
30714;BME280;17465;47.934;33.430;2023-07-02T06:44:01;57766.79;;;-140.43;52.90
30714;BME280;17465;47.934;33.430;2023-07-02T06:46:50;57792.21;;;-140.43;53.03
30714;BME280;17465;47.934;33.430;2023-07-02T06:49:21;57792.21;;;-140.43;53.03
30714;BME280;17465;47.934;33.430;2023-07-02T06:51:51;57777.38;;;-140.43;51.31
30714;BME280;17465;47.934;33.430;2023-07-02T06:54:23;57793.27;;;-140.43;52.33
30714;BME280;17465;47.934;33.430;2023-07-02T06:56:56;57804.92;;;-140.43;50.34
30714;BME280;17465;47.934;33.430;2023-07-02T06:59:39;57804.92;;;-140.43;50.34
30714;BME280;17465;47.934;33.430;2023-07-02T07:02:10;57812.34;;;-140.43;52.69
30714;BME280;17465;47.934;33.430;2023-07-02T07:04:40;57846.23;;;-140.43;51.79
30714;BME280;17465;47.934;33.430;2023-07-02T07:07:12;57864.24;;;-140.43;50.03
30714;BME280;17465;47.934;33.430;2023-07-02T07:09:42;57864.24;;;-140.43;50.03
30714;BME280;17465;47.934;33.430;2023-07-02T07:12:15;57871.65;;;-140.43;47.92
30714;BME280;17465;47.934;33.430;2023-07-02T07:14:46;57867.41;;;-140.43;49.06
30714;BME280;17465;47.934;33.430;2023-07-02T07:17:19;57876.95;;;-140.43;47.99
30714;BME280;17465;47.934;33.430;2023-07-02T07:19:50;57846.23;;;-140.43;48.53
30714;BME280;17465;47.934;33.430;2023-07-02T07:22:26;57861.06;;;-140.43;47.32
30714;BME280;17465;47.934;33.430;2023-07-02T07:24:57;57879.07;;;-140.43;47.47
30714;BME280;17465;47.934;33.430;2023-07-02T07:27:27;57879.07;;;-140.43;47.47
30714;BME280;17465;47.934;33.430;2023-07-02T07:30:12;57869.54;;;-140.43;47.52
30714;BME280;17465;47.934;33.430;2023-07-02T07:32:43;57853.64;;;-140.43;47.61
30714;BME280;17465;47.934;33.430;2023-07-02T07:35:19;57853.64;;;-140.43;47.61
30714;BME280;17465;47.934;33.430;2023-07-02T07:37:45;57885.42;;;-140.43;46.34
30714;BME280;17465;47.934;33.430;2023-07-02T07:40:27;57905.55;;;-140.43;46.45
30714;BME280;17465;47.934;33.430;2023-07-02T07:42:58;57935.21;;;-140.43;43.79
30714;BME280;17465;47.934;33.430;2023-07-02T07:45:29;57920.37;;;-140.43;43.37
30714;BME280;17465;47.934;33.430;2023-07-02T07:48:03;57938.38;;;-140.43;40.95
30714;BME280;17465;47.934;33.430;2023-07-02T07:50:40;58035.84;;;-140.43;40.02
30714;BME280;17465;47.934;33.430;2023-07-02T07:53:17;58035.84;;;-140.43;40.02
30714;BME280;17465;47.934;33.430;2023-07-02T07:55:50;57978.64;;;-140.43;38.06
30714;BME280;17465;47.934;33.430;2023-07-02T07:58:23;57961.69;;;-140.43;37.53
30714;BME280;17465;47.934;33.430;2023-07-02T08:00:55;58003.00;;;-140.43;37.11
30714;BME280;17465;47.934;33.430;2023-07-02T08:03:25;57987.11;;;-140.43;36.70
30714;BME280;17465;47.934;33.430;2023-07-02T08:05:57;57987.11;;;-140.43;36.70
30714;BME280;17465;47.934;33.430;2023-07-02T08:08:36;58063.38;;;-140.43;36.51
30714;BME280;17465;47.934;33.430;2023-07-02T08:11:05;57997.70;;;-140.43;36.76
30714;BME280;17465;47.934;33.430;2023-07-02T08:13:37;58113.16;;;-140.43;35.68
30714;BME280;17465;47.934;33.430;2023-07-02T08:16:08;58083.50;;;-140.43;35.67
30714;BME280;17465;47.934;33.430;2023-07-02T08:18:38;58136.47;;;-140.43;35.64
30714;BME280;17465;47.934;33.430;2023-07-02T08:21:10;58116.34;;;-140.43;33.58
30714;BME280;17465;47.934;33.430;2023-07-02T08:23:43;58116.34;;;-140.43;33.58
30714;BME280;17465;47.934;33.430;2023-07-02T08:26:13;58082.45;;;-140.43;34.01
30714;BME280;17465;47.934;33.430;2023-07-02T08:28:45;58083.50;;;-140.43;34.44
30714;BME280;17465;47.934;33.430;2023-07-02T08:31:18;58050.67;;;-140.43;34.66
30714;BME280;17465;47.934;33.430;2023-07-02T08:33:56;58141.77;;;-140.43;32.25
30714;BME280;17465;47.934;33.430;2023-07-02T08:36:26;58143.88;;;-140.43;32.44
30714;BME280;17465;47.934;33.430;2023-07-02T08:38:57;58143.88;;;-140.43;32.44
30714;BME280;17465;47.934;33.430;2023-07-02T08:41:29;58242.40;;;-140.43;30.85
30714;BME280;17465;47.934;33.430;2023-07-02T08:44:03;58191.55;;;-140.43;31.27
30714;BME280;17465;47.934;33.430;2023-07-02T08:46:37;58204.27;;;-140.43;31.05
30714;BME280;17465;47.934;33.430;2023-07-02T08:49:13;58204.27;;;-140.43;31.05
30714;BME280;17465;47.934;33.430;2023-07-02T08:51:45;58278.42;;;-140.43;29.93
30714;BME280;17465;47.934;33.430;2023-07-02T08:54:18;58269.95;;;-140.43;29.82
30714;BME280;17465;47.934;33.430;2023-07-02T08:56:49;58266.77;;;-140.43;29.77
30714;BME280;17465;47.934;33.430;2023-07-02T08:59:28;58266.77;;;-140.43;29.77
30714;BME280;17465;47.934;33.430;2023-07-02T09:02:00;58368.46;;;-140.43;29.24
30714;BME280;17465;47.934;33.430;2023-07-02T09:04:32;58447.92;;;-140.43;29.25
30714;BME280;17465;47.934;33.430;2023-07-02T09:07:08;58315.50;;;-140.43;27.96
30714;BME280;17465;47.934;33.430;2023-07-02T09:09:52;58275.24;;;-140.43;28.57
30714;BME280;17465;47.934;33.430;2023-07-02T09:12:28;58275.24;;;-140.43;28.57
30714;BME280;17465;47.934;33.430;2023-07-02T09:15:00;58436.27;;;-140.43;28.55
30714;BME280;17465;47.934;33.430;2023-07-02T09:17:35;58432.03;;;-140.43;27.77
30714;BME280;17465;47.934;33.430;2023-07-02T09:20:11;58427.79;;;-140.43;26.69
30714;BME280;17465;47.934;33.430;2023-07-02T09:22:57;58420.37;;;-140.43;25.93
30714;BME280;17465;47.934;33.430;2023-07-02T09:25:37;58370.58;;;-140.43;26.27
30714;BME280;17465;47.934;33.430;2023-07-02T09:28:18;58352.57;;;-140.43;26.18
30714;BME280;17465;47.934;33.430;2023-07-02T09:30:54;58352.57;;;-140.43;26.18
30714;BME280;17465;47.934;33.430;2023-07-02T09:33:29;58368.46;;;-140.43;26.76
30714;BME280;17465;47.934;33.430;2023-07-02T09:36:00;58388.59;;;-140.43;27.18
30714;BME280;17465;47.934;33.430;2023-07-02T09:38:34;58326.09;;;-140.43;26.71
30714;BME280;17465;47.934;33.430;2023-07-02T09:41:06;58465.93;;;-140.43;26.53
30714;BME280;17465;47.934;33.430;2023-07-02T09:43:38;58420.37;;;-140.43;26.38
30714;BME280;17465;47.934;33.430;2023-07-02T09:46:14;58529.50;;;-140.43;26.16
30714;BME280;17465;47.934;33.430;2023-07-02T09:48:55;58481.82;;;-140.43;26.89
30714;BME280;17465;47.934;33.430;2023-07-02T09:51:28;58481.82;;;-140.43;26.89
30714;BME280;17465;47.934;33.430;2023-07-02T09:53:58;58375.88;;;-140.43;25.84
30714;BME280;17465;47.934;33.430;2023-07-02T09:56:54;58426.73;;;-140.43;25.53
30714;BME280;17465;47.934;33.430;2023-07-02T09:59:21;58448.98;;;-140.43;25.06
30714;BME280;17465;47.934;33.430;2023-07-02T10:01:52;58476.52;;;-140.43;25.52
30714;BME280;17465;47.934;33.430;2023-07-02T10:04:23;58367.41;;;-140.43;26.14
30714;BME280;17465;47.934;33.430;2023-07-02T10:06:58;58443.68;;;-140.43;26.56
30714;BME280;17465;47.934;33.430;2023-07-02T10:09:44;58579.29;;;-140.43;25.74
30714;BME280;17465;47.934;33.430;2023-07-02T10:14:54;58472.29;;;-140.43;27.05
30714;BME280;17465;47.934;33.430;2023-07-02T10:17:29;58488.18;;;-140.43;26.75
30714;BME280;17465;47.934;33.430;2023-07-02T10:20:05;58430.97;;;-140.43;26.57
30714;BME280;17465;47.934;33.430;2023-07-02T10:22:45;58430.97;;;-140.43;26.57
30714;BME280;17465;47.934;33.430;2023-07-02T10:25:35;58598.36;;;-140.43;25.45
30714;BME280;17465;47.934;33.430;2023-07-02T10:28:13;58454.28;;;-140.43;24.64
30714;BME280;17465;47.934;33.430;2023-07-02T10:30:38;58454.28;;;-140.43;24.64
30714;BME280;17465;47.934;33.430;2023-07-02T10:33:16;58488.18;;;-140.43;24.23
30714;BME280;17465;47.934;33.430;2023-07-02T10:35:46;58539.03;;;-140.43;24.47
30714;BME280;17465;47.934;33.430;2023-07-02T10:38:23;58481.82;;;-140.43;24.59
30714;BME280;17465;47.934;33.430;2023-07-02T10:41:06;58468.05;;;-140.43;24.94
30714;BME280;17465;47.934;33.430;2023-07-02T10:43:37;58565.52;;;-140.43;25.38
30714;BME280;17465;47.934;33.430;2023-07-02T10:46:08;58550.68;;;-140.43;25.05
30714;BME280;17465;47.934;33.430;2023-07-02T10:48:38;58550.68;;;-140.43;25.05
30714;BME280;17465;47.934;33.430;2023-07-02T10:51:13;58622.73;;;-140.43;25.81
30714;BME280;17465;47.934;33.430;2023-07-02T10:53:44;58565.52;;;-140.43;25.36
30714;BME280;17465;47.934;33.430;2023-07-02T10:56:20;58617.43;;;-140.43;25.21
30714;BME280;17465;47.934;33.430;2023-07-02T10:58:50;58685.23;;;-140.43;24.54
30714;BME280;17465;47.934;33.430;2023-07-02T11:01:28;58657.69;;;-140.43;25.50
30714;BME280;17465;47.934;33.430;2023-07-02T11:04:06;58620.61;;;-140.43;25.44
30714;BME280;17465;47.934;33.430;2023-07-02T11:06:38;58564.46;;;-140.43;26.05
30714;BME280;17465;47.934;33.430;2023-07-02T11:09:17;58534.79;;;-140.43;25.88
30714;BME280;17465;47.934;33.430;2023-07-02T11:14:42;58632.26;;;-140.43;25.32
30714;BME280;17465;47.934;33.430;2023-07-02T11:17:13;58632.26;;;-140.43;25.32
30714;BME280;17465;47.934;33.430;2023-07-02T11:19:49;58600.48;;;-140.43;25.63
30714;BME280;17465;47.934;33.430;2023-07-02T11:22:17;58552.80;;;-140.43;26.67
30714;BME280;17465;47.934;33.430;2023-07-02T11:24:47;58508.30;;;-140.43;26.51
30714;BME280;17465;47.934;33.430;2023-07-02T11:27:22;58508.30;;;-140.43;26.51
30714;BME280;17465;47.934;33.430;2023-07-02T11:29:59;58480.76;;;-140.43;26.70
30714;BME280;17465;47.934;33.430;2023-07-02T11:32:30;58548.56;;;-140.43;26.38
30714;BME280;17465;47.934;33.430;2023-07-02T11:35:00;58728.68;;;-140.43;24.59
30714;BME280;17465;47.934;33.430;2023-07-02T11:37:31;58728.68;;;-140.43;24.59
30714;BME280;17465;47.934;33.430;2023-07-02T11:40:01;58579.29;;;-140.43;24.55
30714;BME280;17465;47.934;33.430;2023-07-02T11:42:33;58579.29;;;-140.43;24.55
30714;BME280;17465;47.934;33.430;2023-07-02T11:45:03;58628.02;;;-140.43;25.57
30714;BME280;17465;47.934;33.430;2023-07-02T11:47:34;58749.86;;;-140.43;24.10
30714;BME280;17465;47.934;33.430;2023-07-02T11:50:05;58560.22;;;-140.43;24.22
30714;BME280;17465;47.934;33.430;2023-07-02T11:52:37;58653.45;;;-140.43;24.15
30714;BME280;17465;47.934;33.430;2023-07-02T11:55:08;58720.20;;;-140.43;23.22
30714;BME280;17465;47.934;33.430;2023-07-02T11:57:41;58720.20;;;-140.43;23.22
30714;BME280;17465;47.934;33.430;2023-07-02T12:00:26;58714.90;;;-140.43;23.30
30714;BME280;17465;47.934;33.430;2023-07-02T12:02:56;58714.90;;;-140.43;23.30
30714;BME280;17465;47.934;33.430;2023-07-02T12:05:27;58689.47;;;-140.43;22.98
30714;BME280;17465;47.934;33.430;2023-07-02T12:08:13;58786.95;;;-140.43;23.28
30714;BME280;17465;47.934;33.430;2023-07-02T12:10:31;58711.72;;;-140.43;22.91
30714;BME280;17465;47.934;33.430;2023-07-02T12:13:03;58711.72;;;-140.43;22.91
30714;BME280;17465;47.934;33.430;2023-07-02T12:15:33;58722.32;;;-140.43;23.98
30714;BME280;17465;47.934;33.430;2023-07-02T12:18:04;58722.32;;;-140.43;23.98
30714;BME280;17465;47.934;33.430;2023-07-02T12:20:37;58764.70;;;-140.43;22.67
30714;BME280;17465;47.934;33.430;2023-07-02T12:23:07;58686.30;;;-140.43;23.60
30714;BME280;17465;47.934;33.430;2023-07-02T12:25:38;58712.78;;;-140.43;23.44
30714;BME280;17465;47.934;33.430;2023-07-02T12:28:09;58684.18;;;-140.43;23.83
30714;BME280;17465;47.934;33.430;2023-07-02T12:30:41;58684.18;;;-140.43;23.83
30714;BME280;17465;47.934;33.430;2023-07-02T12:33:11;58736.09;;;-140.43;22.72
30714;BME280;17465;47.934;33.430;2023-07-02T12:35:42;58736.09;;;-140.43;22.72
30714;BME280;17465;47.934;33.430;2023-07-02T12:38:14;58758.34;;;-140.43;22.62
30714;BME280;17465;47.934;33.430;2023-07-02T12:40:44;58755.16;;;-140.43;22.09
30714;BME280;17465;47.934;33.430;2023-07-02T12:43:14;58818.73;;;-140.43;22.28
30714;BME280;17465;47.934;33.430;2023-07-02T12:45:45;58708.54;;;-140.43;22.49
30714;BME280;17465;47.934;33.430;2023-07-02T12:48:16;58708.54;;;-140.43;22.49
30714;BME280;17465;47.934;33.430;2023-07-02T12:50:57;58739.27;;;-140.43;22.38
30714;BME280;17465;47.934;33.430;2023-07-02T12:53:47;58687.36;;;-140.43;22.91
30714;BME280;17465;47.934;33.430;2023-07-02T12:56:22;58750.93;;;-140.43;22.30
30714;BME280;17465;47.934;33.430;2023-07-02T12:59:08;58710.66;;;-140.43;22.21
30714;BME280;17465;47.934;33.430;2023-07-02T13:01:38;58681.00;;;-140.43;22.56
30714;BME280;17465;47.934;33.430;2023-07-02T13:04:09;58664.05;;;-140.43;22.62
30714;BME280;17465;47.934;33.430;2023-07-02T13:06:40;58543.27;;;-140.43;22.98